sensor_id;sensor_type;location;lat;lon;timestamp;P1;durP1;ratioP1;P2;durP2;ratioP2
41709;SDS011;59402;48.396;-4.472;2023-03-16T00:01:41;15.35;;;2.10;;
41709;SDS011;59402;48.396;-4.472;2023-03-16T00:04:07;11.52;;;1.83;;
41709;SDS011;59402;48.396;-4.472;2023-03-16T00:06:33;13.98;;;2.67;;
41709;SDS011;59402;48.396;-4.472;2023-03-16T00:11:27;15.93;;;2.20;;
41709;SDS011;59402;48.396;-4.472;2023-03-16T00:13:53;16.02;;;2.47;;
41709;SDS011;59402;48.396;-4.472;2023-03-16T00:16:18;13.77;;;2.55;;
41709;SDS011;59402;48.396;-4.472;2023-03-16T00:18:44;9.10;;;2.05;;
41709;SDS011;59402;48.396;-4.472;2023-03-16T00:21:10;11.20;;;2.53;;
41709;SDS011;59402;48.396;-4.472;2023-03-16T00:23:38;10.38;;;1.60;;
41709;SDS011;59402;48.396;-4.472;2023-03-16T00:26:05;11.75;;;2.05;;
41709;SDS011;59402;48.396;-4.472;2023-03-16T00:28:32;9.73;;;2.28;;
41709;SDS011;59402;48.396;-4.472;2023-03-16T00:31:09;15.23;;;2.47;;
41709;SDS011;59402;48.396;-4.472;2023-03-16T00:33:39;10.70;;;1.90;;
41709;SDS011;59402;48.396;-4.472;2023-03-16T00:38:39;13.70;;;1.92;;
41709;SDS011;59402;48.396;-4.472;2023-03-16T00:41:10;8.85;;;2.10;;
41709;SDS011;59402;48.396;-4.472;2023-03-16T00:43:39;11.60;;;2.53;;
41709;SDS011;59402;48.396;-4.472;2023-03-16T00:46:07;12.80;;;2.20;;
41709;SDS011;59402;48.396;-4.472;2023-03-16T00:48:36;11.57;;;1.98;;
41709;SDS011;59402;48.396;-4.472;2023-03-16T00:51:03;9.27;;;1.90;;
41709;SDS011;59402;48.396;-4.472;2023-03-16T00:53:34;16.65;;;2.40;;
41709;SDS011;59402;48.396;-4.472;2023-03-16T00:56:01;12.65;;;1.60;;
41709;SDS011;59402;48.396;-4.472;2023-03-16T00:58:33;14.65;;;3.13;;
41709;SDS011;59402;48.396;-4.472;2023-03-16T01:01:00;15.20;;;2.28;;
41709;SDS011;59402;48.396;-4.472;2023-03-16T01:03:30;15.27;;;2.33;;
41709;SDS011;59402;48.396;-4.472;2023-03-16T01:05:57;10.73;;;2.22;;
41709;SDS011;59402;48.396;-4.472;2023-03-16T01:08:25;11.43;;;2.17;;
41709;SDS011;59402;48.396;-4.472;2023-03-16T01:10:54;15.35;;;2.58;;
41709;SDS011;59402;48.396;-4.472;2023-03-16T01:13:20;10.95;;;2.38;;
41709;SDS011;59402;48.396;-4.472;2023-03-16T01:15:49;13.98;;;2.42;;
41709;SDS011;59402;48.396;-4.472;2023-03-16T01:18:15;13.77;;;2.30;;
41709;SDS011;59402;48.396;-4.472;2023-03-16T01:20:42;13.82;;;2.03;;
41709;SDS011;59402;48.396;-4.472;2023-03-16T01:23:15;9.73;;;2.33;;
41709;SDS011;59402;48.396;-4.472;2023-03-16T01:25:42;11.98;;;2.33;;
41709;SDS011;59402;48.396;-4.472;2023-03-16T01:28:08;11.90;;;2.30;;
41709;SDS011;59402;48.396;-4.472;2023-03-16T01:30:34;15.65;;;2.25;;
41709;SDS011;59402;48.396;-4.472;2023-03-16T01:33:00;15.30;;;2.45;;
41709;SDS011;59402;48.396;-4.472;2023-03-16T01:35:26;10.93;;;1.90;;
41709;SDS011;59402;48.396;-4.472;2023-03-16T01:37:53;9.00;;;2.10;;
41709;SDS011;59402;48.396;-4.472;2023-03-16T01:40:22;14.80;;;2.15;;
41709;SDS011;59402;48.396;-4.472;2023-03-16T01:42:48;7.93;;;2.03;;
41709;SDS011;59402;48.396;-4.472;2023-03-16T01:48:23;8.10;;;1.65;;
41709;SDS011;59402;48.396;-4.472;2023-03-16T01:50:51;10.13;;;2.30;;
41709;SDS011;59402;48.396;-4.472;2023-03-16T01:53:18;8.15;;;1.85;;
41709;SDS011;59402;48.396;-4.472;2023-03-16T01:55:46;11.77;;;2.05;;
41709;SDS011;59402;48.396;-4.472;2023-03-16T01:58:12;9.38;;;2.25;;
41709;SDS011;59402;48.396;-4.472;2023-03-16T02:00:39;12.00;;;1.80;;
41709;SDS011;59402;48.396;-4.472;2023-03-16T02:03:16;10.73;;;1.75;;
41709;SDS011;59402;48.396;-4.472;2023-03-16T02:06:05;12.35;;;2.03;;
41709;SDS011;59402;48.396;-4.472;2023-03-16T02:08:35;8.68;;;1.38;;
41709;SDS011;59402;48.396;-4.472;2023-03-16T02:11:02;9.02;;;2.00;;
41709;SDS011;59402;48.396;-4.472;2023-03-16T02:13:49;11.50;;;1.65;;
41709;SDS011;59402;48.396;-4.472;2023-03-16T02:16:15;10.80;;;1.98;;
41709;SDS011;59402;48.396;-4.472;2023-03-16T02:18:46;13.63;;;2.15;;
41709;SDS011;59402;48.396;-4.472;2023-03-16T02:23:42;7.75;;;1.80;;
41709;SDS011;59402;48.396;-4.472;2023-03-16T02:31:32;9.27;;;1.58;;
41709;SDS011;59402;48.396;-4.472;2023-03-16T02:33:59;10.68;;;1.85;;
41709;SDS011;59402;48.396;-4.472;2023-03-16T02:36:25;10.35;;;1.88;;
41709;SDS011;59402;48.396;-4.472;2023-03-16T02:38:51;15.80;;;1.90;;
41709;SDS011;59402;48.396;-4.472;2023-03-16T02:41:19;15.00;;;1.85;;
41709;SDS011;59402;48.396;-4.472;2023-03-16T02:43:54;12.32;;;2.00;;
41709;SDS011;59402;48.396;-4.472;2023-03-16T02:46:29;13.00;;;1.55;;
41709;SDS011;59402;48.396;-4.472;2023-03-16T02:51:29;13.57;;;1.70;;
41709;SDS011;59402;48.396;-4.472;2023-03-16T02:53:56;13.23;;;2.07;;
41709;SDS011;59402;48.396;-4.472;2023-03-16T02:56:23;11.17;;;1.93;;
41709;SDS011;59402;48.396;-4.472;2023-03-16T02:58:49;13.45;;;2.10;;
41709;SDS011;59402;48.396;-4.472;2023-03-16T03:03:42;18.85;;;2.40;;
41709;SDS011;59402;48.396;-4.472;2023-03-16T03:06:08;15.98;;;2.15;;
41709;SDS011;59402;48.396;-4.472;2023-03-16T03:08:35;18.65;;;2.97;;
41709;SDS011;59402;48.396;-4.472;2023-03-16T03:11:01;14.98;;;2.65;;
41709;SDS011;59402;48.396;-4.472;2023-03-16T03:13:27;17.20;;;2.85;;
41709;SDS011;59402;48.396;-4.472;2023-03-16T03:15:53;13.23;;;2.40;;
41709;SDS011;59402;48.396;-4.472;2023-03-16T03:18:21;14.57;;;2.33;;
41709;SDS011;59402;48.396;-4.472;2023-03-16T03:20:50;15.68;;;2.40;;
41709;SDS011;59402;48.396;-4.472;2023-03-16T03:23:15;16.33;;;2.88;;
41709;SDS011;59402;48.396;-4.472;2023-03-16T03:25:41;17.60;;;2.95;;
41709;SDS011;59402;48.396;-4.472;2023-03-16T03:28:07;18.92;;;2.72;;
41709;SDS011;59402;48.396;-4.472;2023-03-16T03:30:33;14.43;;;2.90;;
41709;SDS011;59402;48.396;-4.472;2023-03-16T03:32:59;19.05;;;2.60;;
41709;SDS011;59402;48.396;-4.472;2023-03-16T03:35:26;18.50;;;2.15;;
41709;SDS011;59402;48.396;-4.472;2023-03-16T03:37:52;20.25;;;2.58;;
41709;SDS011;59402;48.396;-4.472;2023-03-16T03:40:19;16.57;;;2.07;;
41709;SDS011;59402;48.396;-4.472;2023-03-16T03:42:54;9.98;;;1.50;;
41709;SDS011;59402;48.396;-4.472;2023-03-16T03:45:21;11.13;;;1.52;;
41709;SDS011;59402;48.396;-4.472;2023-03-16T03:47:47;11.00;;;1.67;;
41709;SDS011;59402;48.396;-4.472;2023-03-16T03:50:17;12.68;;;1.92;;
41709;SDS011;59402;48.396;-4.472;2023-03-16T03:52:56;13.52;;;1.77;;
41709;SDS011;59402;48.396;-4.472;2023-03-16T03:55:22;11.93;;;2.03;;
41709;SDS011;59402;48.396;-4.472;2023-03-16T03:57:48;13.82;;;2.13;;
41709;SDS011;59402;48.396;-4.472;2023-03-16T04:00:14;8.73;;;1.60;;
41709;SDS011;59402;48.396;-4.472;2023-03-16T04:02:44;12.57;;;2.40;;
41709;SDS011;59402;48.396;-4.472;2023-03-16T04:05:18;12.55;;;1.40;;
41709;SDS011;59402;48.396;-4.472;2023-03-16T04:07:47;12.55;;;1.60;;
41709;SDS011;59402;48.396;-4.472;2023-03-16T04:10:15;11.00;;;1.48;;
41709;SDS011;59402;48.396;-4.472;2023-03-16T04:12:41;11.50;;;1.50;;
41709;SDS011;59402;48.396;-4.472;2023-03-16T04:17:45;13.25;;;2.08;;
41709;SDS011;59402;48.396;-4.472;2023-03-16T04:20:12;13.37;;;1.60;;
41709;SDS011;59402;48.396;-4.472;2023-03-16T04:22:41;12.68;;;2.03;;
41709;SDS011;59402;48.396;-4.472;2023-03-16T04:25:11;11.48;;;1.55;;
41709;SDS011;59402;48.396;-4.472;2023-03-16T04:27:39;8.57;;;1.67;;
41709;SDS011;59402;48.396;-4.472;2023-03-16T04:30:09;10.15;;;1.77;;
41709;SDS011;59402;48.396;-4.472;2023-03-16T04:32:39;10.93;;;1.50;;
41709;SDS011;59402;48.396;-4.472;2023-03-16T04:35:06;13.43;;;1.95;;
41709;SDS011;59402;48.396;-4.472;2023-03-16T04:37:43;17.60;;;2.20;;
41709;SDS011;59402;48.396;-4.472;2023-03-16T04:40:09;13.50;;;2.10;;
41709;SDS011;59402;48.396;-4.472;2023-03-16T04:42:46;17.40;;;2.25;;
41709;SDS011;59402;48.396;-4.472;2023-03-16T04:45:16;17.27;;;2.33;;
41709;SDS011;59402;48.396;-4.472;2023-03-16T04:47:44;10.68;;;1.70;;
41709;SDS011;59402;48.396;-4.472;2023-03-16T04:50:10;15.70;;;2.33;;
41709;SDS011;59402;48.396;-4.472;2023-03-16T04:52:37;12.90;;;1.98;;
41709;SDS011;59402;48.396;-4.472;2023-03-16T04:55:03;9.65;;;1.80;;
41709;SDS011;59402;48.396;-4.472;2023-03-16T04:57:30;12.73;;;1.90;;
41709;SDS011;59402;48.396;-4.472;2023-03-16T04:59:56;9.57;;;1.73;;
41709;SDS011;59402;48.396;-4.472;2023-03-16T05:02:33;13.65;;;1.65;;
41709;SDS011;59402;48.396;-4.472;2023-03-16T05:05:00;8.77;;;2.08;;
41709;SDS011;59402;48.396;-4.472;2023-03-16T05:07:25;15.15;;;2.50;;
41709;SDS011;59402;48.396;-4.472;2023-03-16T05:09:53;13.10;;;2.17;;
41709;SDS011;59402;48.396;-4.472;2023-03-16T05:12:19;12.90;;;1.80;;
41709;SDS011;59402;48.396;-4.472;2023-03-16T05:14:49;11.10;;;1.90;;
41709;SDS011;59402;48.396;-4.472;2023-03-16T05:17:29;11.88;;;1.65;;
41709;SDS011;59402;48.396;-4.472;2023-03-16T05:19:55;13.40;;;2.00;;
41709;SDS011;59402;48.396;-4.472;2023-03-16T05:22:20;12.98;;;2.05;;
41709;SDS011;59402;48.396;-4.472;2023-03-16T05:25:05;16.60;;;2.20;;
41709;SDS011;59402;48.396;-4.472;2023-03-16T05:27:32;11.23;;;1.33;;
41709;SDS011;59402;48.396;-4.472;2023-03-16T05:29:58;18.63;;;2.55;;
41709;SDS011;59402;48.396;-4.472;2023-03-16T05:32:27;16.90;;;2.10;;
41709;SDS011;59402;48.396;-4.472;2023-03-16T05:34:53;12.38;;;1.98;;
41709;SDS011;59402;48.396;-4.472;2023-03-16T05:37:19;13.82;;;2.10;;
41709;SDS011;59402;48.396;-4.472;2023-03-16T05:39:45;14.07;;;1.80;;
41709;SDS011;59402;48.396;-4.472;2023-03-16T05:42:11;14.52;;;1.83;;
41709;SDS011;59402;48.396;-4.472;2023-03-16T05:44:47;10.82;;;1.63;;
41709;SDS011;59402;48.396;-4.472;2023-03-16T05:47:27;13.68;;;1.95;;
41709;SDS011;59402;48.396;-4.472;2023-03-16T05:49:55;12.57;;;1.77;;
41709;SDS011;59402;48.396;-4.472;2023-03-16T05:52:34;14.93;;;2.30;;
41709;SDS011;59402;48.396;-4.472;2023-03-16T05:55:08;14.77;;;2.47;;
41709;SDS011;59402;48.396;-4.472;2023-03-16T05:57:35;17.38;;;1.98;;
41709;SDS011;59402;48.396;-4.472;2023-03-16T06:00:02;11.75;;;1.90;;
41709;SDS011;59402;48.396;-4.472;2023-03-16T06:02:47;13.43;;;2.10;;
41709;SDS011;59402;48.396;-4.472;2023-03-16T06:05:15;17.25;;;2.38;;
41709;SDS011;59402;48.396;-4.472;2023-03-16T06:07:44;18.08;;;2.22;;
41709;SDS011;59402;48.396;-4.472;2023-03-16T06:10:10;18.03;;;2.60;;
41709;SDS011;59402;48.396;-4.472;2023-03-16T06:12:37;17.10;;;2.38;;
41709;SDS011;59402;48.396;-4.472;2023-03-16T06:15:04;17.67;;;2.35;;
41709;SDS011;59402;48.396;-4.472;2023-03-16T06:17:34;12.27;;;1.95;;
41709;SDS011;59402;48.396;-4.472;2023-03-16T06:20:01;18.65;;;2.45;;
41709;SDS011;59402;48.396;-4.472;2023-03-16T06:22:27;14.23;;;1.73;;
41709;SDS011;59402;48.396;-4.472;2023-03-16T06:24:54;12.82;;;2.13;;
41709;SDS011;59402;48.396;-4.472;2023-03-16T06:27:20;12.95;;;2.20;;
41709;SDS011;59402;48.396;-4.472;2023-03-16T06:30:02;16.67;;;2.30;;
41709;SDS011;59402;48.396;-4.472;2023-03-16T06:32:30;11.82;;;2.00;;
41709;SDS011;59402;48.396;-4.472;2023-03-16T06:34:56;15.68;;;2.08;;
41709;SDS011;59402;48.396;-4.472;2023-03-16T06:39:49;9.57;;;2.03;;
41709;SDS011;59402;48.396;-4.472;2023-03-16T06:42:15;13.50;;;2.20;;
41709;SDS011;59402;48.396;-4.472;2023-03-16T06:44:41;10.38;;;2.08;;
41709;SDS011;59402;48.396;-4.472;2023-03-16T06:47:10;12.32;;;1.83;;
41709;SDS011;59402;48.396;-4.472;2023-03-16T06:49:36;16.83;;;2.80;;
41709;SDS011;59402;48.396;-4.472;2023-03-16T06:52:06;9.60;;;2.00;;
41709;SDS011;59402;48.396;-4.472;2023-03-16T06:54:35;12.48;;;1.98;;
41709;SDS011;59402;48.396;-4.472;2023-03-16T06:57:02;16.08;;;2.95;;
41709;SDS011;59402;48.396;-4.472;2023-03-16T06:59:28;18.75;;;3.70;;
41709;SDS011;59402;48.396;-4.472;2023-03-16T07:01:55;14.70;;;2.13;;
41709;SDS011;59402;48.396;-4.472;2023-03-16T07:04:21;8.18;;;2.17;;
41709;SDS011;59402;48.396;-4.472;2023-03-16T07:06:47;14.82;;;1.65;;
41709;SDS011;59402;48.396;-4.472;2023-03-16T07:09:14;19.27;;;2.88;;
41709;SDS011;59402;48.396;-4.472;2023-03-16T07:11:40;18.63;;;2.22;;
41709;SDS011;59402;48.396;-4.472;2023-03-16T07:14:06;14.30;;;2.40;;
41709;SDS011;59402;48.396;-4.472;2023-03-16T07:16:33;14.77;;;2.65;;
41709;SDS011;59402;48.396;-4.472;2023-03-16T07:19:02;15.85;;;2.45;;
41709;SDS011;59402;48.396;-4.472;2023-03-16T07:21:27;10.38;;;2.00;;
41709;SDS011;59402;48.396;-4.472;2023-03-16T07:23:53;18.17;;;2.95;;
41709;SDS011;59402;48.396;-4.472;2023-03-16T07:26:23;16.73;;;2.38;;
41709;SDS011;59402;48.396;-4.472;2023-03-16T07:28:53;18.90;;;2.55;;
41709;SDS011;59402;48.396;-4.472;2023-03-16T07:31:19;15.85;;;2.67;;
41709;SDS011;59402;48.396;-4.472;2023-03-16T07:33:46;10.40;;;2.40;;
41709;SDS011;59402;48.396;-4.472;2023-03-16T07:36:17;13.98;;;2.35;;
41709;SDS011;59402;48.396;-4.472;2023-03-16T07:38:49;17.60;;;2.38;;
41709;SDS011;59402;48.396;-4.472;2023-03-16T07:41:16;15.45;;;2.58;;
41709;SDS011;59402;48.396;-4.472;2023-03-16T07:43:42;19.17;;;3.78;;
41709;SDS011;59402;48.396;-4.472;2023-03-16T07:46:09;16.92;;;2.83;;
41709;SDS011;59402;48.396;-4.472;2023-03-16T07:48:38;12.50;;;2.40;;
41709;SDS011;59402;48.396;-4.472;2023-03-16T07:51:05;14.70;;;2.65;;
41709;SDS011;59402;48.396;-4.472;2023-03-16T07:53:31;14.05;;;2.38;;
41709;SDS011;59402;48.396;-4.472;2023-03-16T07:56:12;11.05;;;1.98;;
41709;SDS011;59402;48.396;-4.472;2023-03-16T07:58:41;17.70;;;2.97;;
41709;SDS011;59402;48.396;-4.472;2023-03-16T08:01:07;12.48;;;2.08;;
41709;SDS011;59402;48.396;-4.472;2023-03-16T08:03:35;15.57;;;2.28;;
41709;SDS011;59402;48.396;-4.472;2023-03-16T08:06:00;13.23;;;2.17;;
41709;SDS011;59402;48.396;-4.472;2023-03-16T08:08:26;14.73;;;2.72;;
41709;SDS011;59402;48.396;-4.472;2023-03-16T08:10:52;20.33;;;2.67;;
41709;SDS011;59402;48.396;-4.472;2023-03-16T08:13:19;28.95;;;5.50;;
41709;SDS011;59402;48.396;-4.472;2023-03-16T08:18:28;21.20;;;3.78;;
41709;SDS011;59402;48.396;-4.472;2023-03-16T08:20:54;28.13;;;6.45;;
41709;SDS011;59402;48.396;-4.472;2023-03-16T08:23:21;22.90;;;5.18;;
41709;SDS011;59402;48.396;-4.472;2023-03-16T08:25:52;17.27;;;4.30;;
41709;SDS011;59402;48.396;-4.472;2023-03-16T08:28:20;20.23;;;4.70;;
41709;SDS011;59402;48.396;-4.472;2023-03-16T08:30:48;23.52;;;3.65;;
41709;SDS011;59402;48.396;-4.472;2023-03-16T08:33:38;19.50;;;2.92;;
41709;SDS011;59402;48.396;-4.472;2023-03-16T08:36:10;16.80;;;3.08;;
41709;SDS011;59402;48.396;-4.472;2023-03-16T08:38:38;19.42;;;2.97;;
41709;SDS011;59402;48.396;-4.472;2023-03-16T08:41:06;17.27;;;2.72;;
41709;SDS011;59402;48.396;-4.472;2023-03-16T08:43:33;18.43;;;3.10;;
41709;SDS011;59402;48.396;-4.472;2023-03-16T08:46:01;15.77;;;2.72;;
41709;SDS011;59402;48.396;-4.472;2023-03-16T08:48:40;17.38;;;2.95;;
41709;SDS011;59402;48.396;-4.472;2023-03-16T08:51:09;20.83;;;2.88;;
41709;SDS011;59402;48.396;-4.472;2023-03-16T08:53:35;20.42;;;3.03;;
41709;SDS011;59402;48.396;-4.472;2023-03-16T08:56:02;21.77;;;3.20;;
41709;SDS011;59402;48.396;-4.472;2023-03-16T08:58:29;11.57;;;2.90;;
41709;SDS011;59402;48.396;-4.472;2023-03-16T09:00:57;20.90;;;3.25;;
41709;SDS011;59402;48.396;-4.472;2023-03-16T09:03:23;18.50;;;2.63;;
41709;SDS011;59402;48.396;-4.472;2023-03-16T09:05:50;18.35;;;3.38;;
41709;SDS011;59402;48.396;-4.472;2023-03-16T09:08:16;12.20;;;2.92;;
41709;SDS011;59402;48.396;-4.472;2023-03-16T09:10:42;16.55;;;3.17;;
41709;SDS011;59402;48.396;-4.472;2023-03-16T09:13:09;16.17;;;2.95;;
41709;SDS011;59402;48.396;-4.472;2023-03-16T09:15:35;18.92;;;3.60;;
41709;SDS011;59402;48.396;-4.472;2023-03-16T09:18:01;17.92;;;3.10;;
41709;SDS011;59402;48.396;-4.472;2023-03-16T09:20:29;16.90;;;2.45;;
41709;SDS011;59402;48.396;-4.472;2023-03-16T09:22:55;21.58;;;3.35;;
41709;SDS011;59402;48.396;-4.472;2023-03-16T09:25:22;15.80;;;2.65;;
41709;SDS011;59402;48.396;-4.472;2023-03-16T09:27:49;18.77;;;3.05;;
41709;SDS011;59402;48.396;-4.472;2023-03-16T09:30:15;16.65;;;2.47;;
41709;SDS011;59402;48.396;-4.472;2023-03-16T09:32:41;26.15;;;3.70;;
41709;SDS011;59402;48.396;-4.472;2023-03-16T09:35:07;24.08;;;4.10;;
41709;SDS011;59402;48.396;-4.472;2023-03-16T09:37:33;15.98;;;3.70;;
41709;SDS011;59402;48.396;-4.472;2023-03-16T09:40:00;19.05;;;3.55;;
41709;SDS011;59402;48.396;-4.472;2023-03-16T09:44:55;21.73;;;3.22;;
41709;SDS011;59402;48.396;-4.472;2023-03-16T09:47:42;23.27;;;4.43;;
41709;SDS011;59402;48.396;-4.472;2023-03-16T09:50:15;20.95;;;4.03;;
41709;SDS011;59402;48.396;-4.472;2023-03-16T09:53:12;28.95;;;4.82;;
41709;SDS011;59402;48.396;-4.472;2023-03-16T09:55:39;30.80;;;5.72;;
41709;SDS011;59402;48.396;-4.472;2023-03-16T09:58:18;23.25;;;4.30;;
41709;SDS011;59402;48.396;-4.472;2023-03-16T10:00:54;21.33;;;4.32;;
41709;SDS011;59402;48.396;-4.472;2023-03-16T10:06:24;26.35;;;4.57;;
41709;SDS011;59402;48.396;-4.472;2023-03-16T10:11:41;21.48;;;4.35;;
41709;SDS011;59402;48.396;-4.472;2023-03-16T10:17:04;29.27;;;5.10;;
41709;SDS011;59402;48.396;-4.472;2023-03-16T10:22:08;26.33;;;4.40;;
41709;SDS011;59402;48.396;-4.472;2023-03-16T10:24:44;30.20;;;5.63;;
41709;SDS011;59402;48.396;-4.472;2023-03-16T10:27:22;20.77;;;5.07;;
41709;SDS011;59402;48.396;-4.472;2023-03-16T10:29:56;20.40;;;4.35;;
41709;SDS011;59402;48.396;-4.472;2023-03-16T10:32:22;23.92;;;3.97;;
41709;SDS011;59402;48.396;-4.472;2023-03-16T10:34:56;24.48;;;3.58;;
41709;SDS011;59402;48.396;-4.472;2023-03-16T10:37:25;23.50;;;4.00;;
41709;SDS011;59402;48.396;-4.472;2023-03-16T10:39:54;23.35;;;4.70;;
41709;SDS011;59402;48.396;-4.472;2023-03-16T10:42:20;20.00;;;3.95;;
41709;SDS011;59402;48.396;-4.472;2023-03-16T10:44:46;27.90;;;4.10;;
41709;SDS011;59402;48.396;-4.472;2023-03-16T10:47:30;24.65;;;4.10;;
41709;SDS011;59402;48.396;-4.472;2023-03-16T10:49:57;25.15;;;4.70;;
41709;SDS011;59402;48.396;-4.472;2023-03-16T10:57:29;33.40;;;6.63;;
41709;SDS011;59402;48.396;-4.472;2023-03-16T11:00:04;28.13;;;6.65;;
41709;SDS011;59402;48.396;-4.472;2023-03-16T11:02:38;25.05;;;5.57;;
41709;SDS011;59402;48.396;-4.472;2023-03-16T11:05:11;20.52;;;3.63;;
41709;SDS011;59402;48.396;-4.472;2023-03-16T11:07:47;25.45;;;5.22;;
41709;SDS011;59402;48.396;-4.472;2023-03-16T11:10:25;18.75;;;4.03;;
41709;SDS011;59402;48.396;-4.472;2023-03-16T11:12:52;22.80;;;3.80;;
41709;SDS011;59402;48.396;-4.472;2023-03-16T11:15:19;22.13;;;3.97;;
41709;SDS011;59402;48.396;-4.472;2023-03-16T11:17:48;21.02;;;3.70;;
41709;SDS011;59402;48.396;-4.472;2023-03-16T11:20:25;25.85;;;4.65;;
41709;SDS011;59402;48.396;-4.472;2023-03-16T11:22:52;23.75;;;4.90;;
41709;SDS011;59402;48.396;-4.472;2023-03-16T11:33:08;22.50;;;4.50;;
41709;SDS011;59402;48.396;-4.472;2023-03-16T11:38:34;25.27;;;4.07;;
41709;SDS011;59402;48.396;-4.472;2023-03-16T11:41:07;24.70;;;4.20;;
41709;SDS011;59402;48.396;-4.472;2023-03-16T11:46:42;25.75;;;4.35;;
41709;SDS011;59402;48.396;-4.472;2023-03-16T11:58:11;39.58;;;15.00;;
41709;SDS011;59402;48.396;-4.472;2023-03-16T12:03:45;52.38;;;21.02;;
41709;SDS011;59402;48.396;-4.472;2023-03-16T12:11:48;25.85;;;7.55;;
41709;SDS011;59402;48.396;-4.472;2023-03-16T12:14:40;36.25;;;14.70;;
41709;SDS011;59402;48.396;-4.472;2023-03-16T12:17:11;36.20;;;14.23;;
41709;SDS011;59402;48.396;-4.472;2023-03-16T12:20:00;20.77;;;4.25;;
41709;SDS011;59402;48.396;-4.472;2023-03-16T12:22:40;32.08;;;7.53;;
41709;SDS011;59402;48.396;-4.472;2023-03-16T12:25:39;29.23;;;5.40;;
41709;SDS011;59402;48.396;-4.472;2023-03-16T12:28:12;21.38;;;5.03;;
41709;SDS011;59402;48.396;-4.472;2023-03-16T12:40:00;21.90;;;4.75;;
41709;SDS011;59402;48.396;-4.472;2023-03-16T12:49:48;33.67;;;5.60;;
41709;SDS011;59402;48.396;-4.472;2023-03-16T12:52:16;30.08;;;5.03;;
41709;SDS011;59402;48.396;-4.472;2023-03-16T12:57:32;34.38;;;6.82;;
41709;SDS011;59402;48.396;-4.472;2023-03-16T12:59:58;28.50;;;4.88;;
41709;SDS011;59402;48.396;-4.472;2023-03-16T13:02:27;32.58;;;5.53;;
41709;SDS011;59402;48.396;-4.472;2023-03-16T13:04:55;25.08;;;5.65;;
41709;SDS011;59402;48.396;-4.472;2023-03-16T13:07:24;25.65;;;4.88;;
41709;SDS011;59402;48.396;-4.472;2023-03-16T13:12:36;23.95;;;4.00;;
41709;SDS011;59402;48.396;-4.472;2023-03-16T13:17:46;25.63;;;5.45;;
41709;SDS011;59402;48.396;-4.472;2023-03-16T13:20:27;27.27;;;4.68;;
41709;SDS011;59402;48.396;-4.472;2023-03-16T13:26:22;29.40;;;6.40;;
41709;SDS011;59402;48.396;-4.472;2023-03-16T13:28:42;26.98;;;4.82;;
41709;SDS011;59402;48.396;-4.472;2023-03-16T13:31:20;28.55;;;4.55;;
41709;SDS011;59402;48.396;-4.472;2023-03-16T13:33:57;27.25;;;7.35;;
41709;SDS011;59402;48.396;-4.472;2023-03-16T13:36:25;29.30;;;7.20;;
41709;SDS011;59402;48.396;-4.472;2023-03-16T13:39:00;33.92;;;5.40;;
41709;SDS011;59402;48.396;-4.472;2023-03-16T13:41:29;30.83;;;8.25;;
41709;SDS011;59402;48.396;-4.472;2023-03-16T13:43:55;27.60;;;6.05;;
41709;SDS011;59402;48.396;-4.472;2023-03-16T13:46:26;33.58;;;6.15;;
41709;SDS011;59402;48.396;-4.472;2023-03-16T13:48:53;22.48;;;4.82;;
41709;SDS011;59402;48.396;-4.472;2023-03-16T13:51:22;30.80;;;6.75;;
41709;SDS011;59402;48.396;-4.472;2023-03-16T13:53:48;26.35;;;5.72;;
41709;SDS011;59402;48.396;-4.472;2023-03-16T13:56:15;32.85;;;5.70;;
41709;SDS011;59402;48.396;-4.472;2023-03-16T13:58:44;32.88;;;5.82;;
41709;SDS011;59402;48.396;-4.472;2023-03-16T14:03:46;21.67;;;5.45;;
41709;SDS011;59402;48.396;-4.472;2023-03-16T14:06:31;24.67;;;4.57;;
41709;SDS011;59402;48.396;-4.472;2023-03-16T14:09:03;21.77;;;4.60;;
41709;SDS011;59402;48.396;-4.472;2023-03-16T14:11:30;23.60;;;4.35;;
41709;SDS011;59402;48.396;-4.472;2023-03-16T14:13:57;24.80;;;4.80;;
41709;SDS011;59402;48.396;-4.472;2023-03-16T14:16:24;25.88;;;5.10;;
41709;SDS011;59402;48.396;-4.472;2023-03-16T14:19:13;20.85;;;4.72;;
41709;SDS011;59402;48.396;-4.472;2023-03-16T14:21:42;26.52;;;4.50;;
41709;SDS011;59402;48.396;-4.472;2023-03-16T14:26:50;31.90;;;6.28;;
41709;SDS011;59402;48.396;-4.472;2023-03-16T14:31:50;20.52;;;5.03;;
41709;SDS011;59402;48.396;-4.472;2023-03-16T14:37:04;25.15;;;6.72;;
41709;SDS011;59402;48.396;-4.472;2023-03-16T14:39:30;27.40;;;5.28;;
41709;SDS011;59402;48.396;-4.472;2023-03-16T14:41:56;24.25;;;4.85;;
41709;SDS011;59402;48.396;-4.472;2023-03-16T14:44:23;24.63;;;4.75;;
41709;SDS011;59402;48.396;-4.472;2023-03-16T14:46:53;30.23;;;4.85;;
41709;SDS011;59402;48.396;-4.472;2023-03-16T14:49:30;24.40;;;4.15;;
41709;SDS011;59402;48.396;-4.472;2023-03-16T14:54:52;16.00;;;3.80;;
41709;SDS011;59402;48.396;-4.472;2023-03-16T14:57:19;13.95;;;2.83;;
41709;SDS011;59402;48.396;-4.472;2023-03-16T14:59:46;13.32;;;3.03;;
41709;SDS011;59402;48.396;-4.472;2023-03-16T15:02:23;14.40;;;3.65;;
41709;SDS011;59402;48.396;-4.472;2023-03-16T15:04:51;14.05;;;3.28;;
41709;SDS011;59402;48.396;-4.472;2023-03-16T15:07:21;14.05;;;3.72;;
41709;SDS011;59402;48.396;-4.472;2023-03-16T15:09:49;19.60;;;3.30;;
41709;SDS011;59402;48.396;-4.472;2023-03-16T15:12:16;18.08;;;3.08;;
41709;SDS011;59402;48.396;-4.472;2023-03-16T15:14:44;22.08;;;3.50;;
41709;SDS011;59402;48.396;-4.472;2023-03-16T15:17:28;18.70;;;3.38;;
41709;SDS011;59402;48.396;-4.472;2023-03-16T15:19:55;16.48;;;3.75;;
41709;SDS011;59402;48.396;-4.472;2023-03-16T15:22:31;16.95;;;3.00;;
41709;SDS011;59402;48.396;-4.472;2023-03-16T15:25:00;14.90;;;3.00;;
41709;SDS011;59402;48.396;-4.472;2023-03-16T15:27:32;12.90;;;3.17;;
41709;SDS011;59402;48.396;-4.472;2023-03-16T15:29:59;15.27;;;3.35;;
41709;SDS011;59402;48.396;-4.472;2023-03-16T15:32:26;21.85;;;3.10;;
41709;SDS011;59402;48.396;-4.472;2023-03-16T15:34:51;47.92;;;5.30;;
41709;SDS011;59402;48.396;-4.472;2023-03-16T15:37:17;120.07;;;9.55;;
41709;SDS011;59402;48.396;-4.472;2023-03-16T15:39:44;64.20;;;5.10;;
41709;SDS011;59402;48.396;-4.472;2023-03-16T15:42:12;84.72;;;6.45;;
41709;SDS011;59402;48.396;-4.472;2023-03-16T15:44:40;264.10;;;14.13;;
41709;SDS011;59402;48.396;-4.472;2023-03-16T15:47:06;183.60;;;13.52;;
41709;SDS011;59402;48.396;-4.472;2023-03-16T15:49:33;135.17;;;9.17;;
41709;SDS011;59402;48.396;-4.472;2023-03-16T15:51:59;100.10;;;8.50;;
41709;SDS011;59402;48.396;-4.472;2023-03-16T15:54:26;175.55;;;11.18;;
41709;SDS011;59402;48.396;-4.472;2023-03-16T15:56:52;294.48;;;27.92;;
41709;SDS011;59402;48.396;-4.472;2023-03-16T15:59:20;437.27;;;160.30;;
41709;SDS011;59402;48.396;-4.472;2023-03-16T16:01:47;194.52;;;11.07;;
41709;SDS011;59402;48.396;-4.472;2023-03-16T16:04:14;208.63;;;20.27;;
41709;SDS011;59402;48.396;-4.472;2023-03-16T16:06:43;90.13;;;5.35;;
41709;SDS011;59402;48.396;-4.472;2023-03-16T16:09:11;92.63;;;5.93;;
41709;SDS011;59402;48.396;-4.472;2023-03-16T16:11:36;25.77;;;5.00;;
41709;SDS011;59402;48.396;-4.472;2023-03-16T16:14:03;56.42;;;5.78;;
41709;SDS011;59402;48.396;-4.472;2023-03-16T16:16:29;47.50;;;5.30;;
41709;SDS011;59402;48.396;-4.472;2023-03-16T16:18:57;66.53;;;5.63;;
41709;SDS011;59402;48.396;-4.472;2023-03-16T16:21:24;80.47;;;6.40;;
41709;SDS011;59402;48.396;-4.472;2023-03-16T16:23:53;139.73;;;7.80;;
41709;SDS011;59402;48.396;-4.472;2023-03-16T16:28:54;118.22;;;10.00;;
41709;SDS011;59402;48.396;-4.472;2023-03-16T16:33:48;117.55;;;7.40;;
41709;SDS011;59402;48.396;-4.472;2023-03-16T16:36:15;167.15;;;9.07;;
41709;SDS011;59402;48.396;-4.472;2023-03-16T16:38:44;181.57;;;8.38;;